createdAt,value
2018-06-10T00:00:59.496Z,20.90
2018-06-10T00:03:28.066Z,21.00
2018-06-10T00:05:56.587Z,21.00
2018-06-10T00:08:25.144Z,21.00
2018-06-10T00:10:53.584Z,20.90
2018-06-10T00:13:22.024Z,20.90
2018-06-10T00:15:50.858Z,20.90
2018-06-10T00:18:19.284Z,20.90
2018-06-10T00:20:47.704Z,20.90
2018-06-10T00:23:16.119Z,20.80
2018-06-10T00:25:44.654Z,20.70
2018-06-10T00:28:13.118Z,20.60
2018-06-10T00:30:41.917Z,20.40
2018-06-10T00:33:10.373Z,20.30
2018-06-10T00:35:38.808Z,20.20
2018-06-10T00:38:07.225Z,20.20
2018-06-10T00:40:35.658Z,20.10
2018-06-10T00:43:04.088Z,20.00
2018-06-10T00:45:32.516Z,20.00
2018-06-10T00:48:01.326Z,19.90
2018-06-10T00:50:29.761Z,19.80
2018-06-10T00:52:58.234Z,19.70
2018-06-10T00:55:26.784Z,19.60
2018-06-10T00:57:55.535Z,19.40
2018-06-10T01:00:24.106Z,19.30
2018-06-10T01:02:52.491Z,19.40
2018-06-10T01:05:20.971Z,19.40
2018-06-10T01:07:49.393Z,19.70
2018-06-10T01:10:17.866Z,19.70
2018-06-10T01:12:46.289Z,19.80
2018-06-10T01:15:14.737Z,19.90
2018-06-10T01:17:43.189Z,20.00
2018-06-10T01:20:11.761Z,20.00
2018-06-10T01:22:49.945Z,20.00
2018-06-10T01:25:18.365Z,20.10
2018-06-10T01:27:46.799Z,20.10
2018-06-10T01:30:15.255Z,20.00
2018-06-10T01:32:43.699Z,19.90
2018-06-10T01:35:12.117Z,19.90
2018-06-10T01:37:40.583Z,19.90
2018-06-10T01:40:09.039Z,19.90
2018-06-10T01:42:37.542Z,20.00
2018-06-10T01:45:06.032Z,20.10
2018-06-10T01:47:34.556Z,20.10
2018-06-10T01:52:31.164Z,20.10
2018-06-10T01:54:59.620Z,20.10
2018-06-10T01:57:28.060Z,20.00
2018-06-10T01:59:56.552Z,20.00
2018-06-10T02:02:24.972Z,20.10
2018-06-10T02:04:53.432Z,20.20
2018-06-10T02:07:21.850Z,20.30
2018-06-10T02:09:51.570Z,20.30
2018-06-10T02:12:20.050Z,20.40
2018-06-10T02:14:48.504Z,20.30
2018-06-10T02:17:17.003Z,20.30
2018-06-10T02:19:45.438Z,20.20
2018-06-10T02:22:13.834Z,20.20
2018-06-10T02:24:42.316Z,20.20
2018-06-10T02:27:10.756Z,20.10
2018-06-10T02:29:39.172Z,20.20
2018-06-10T02:32:07.608Z,20.20
2018-06-10T02:34:36.021Z,20.20
2018-06-10T02:37:04.493Z,20.10
2018-06-10T02:39:32.939Z,20.10
2018-06-10T02:42:01.381Z,20.00
2018-06-10T02:44:29.862Z,20.00
2018-06-10T02:46:58.376Z,19.80
2018-06-10T02:49:26.721Z,19.70
2018-06-10T02:51:55.157Z,19.70
2018-06-10T02:54:24.303Z,19.60
2018-06-10T02:56:52.799Z,19.60
2018-06-10T02:59:21.240Z,19.60
2018-06-10T03:01:49.719Z,19.60
2018-06-10T03:04:18.187Z,19.70
2018-06-10T03:06:46.578Z,19.60
2018-06-10T03:09:15.141Z,19.60
2018-06-10T03:11:43.575Z,19.50
2018-06-10T03:14:11.985Z,19.60
2018-06-10T03:16:40.381Z,19.60
2018-06-10T03:19:08.834Z,19.60
2018-06-10T03:21:37.258Z,19.60
2018-06-10T03:24:05.700Z,19.60
2018-06-10T03:26:34.110Z,19.60
2018-06-10T03:29:02.532Z,19.70
2018-06-10T03:31:30.997Z,19.70
2018-06-10T03:33:59.478Z,19.80
2018-06-10T03:36:28.047Z,19.90
2018-06-10T03:38:56.475Z,19.90
2018-06-10T03:41:24.899Z,19.90
2018-06-10T03:43:53.583Z,19.90
2018-06-10T03:46:22.031Z,19.90
2018-06-10T03:48:50.483Z,19.90
2018-06-10T03:53:47.079Z,19.60
2018-06-10T03:56:15.538Z,19.40
2018-06-10T03:58:43.973Z,19.40
2018-06-10T04:01:12.451Z,19.30
2018-06-10T04:03:40.924Z,19.30
2018-06-10T04:06:09.364Z,19.20
2018-06-10T04:08:37.820Z,19.20
2018-06-10T04:11:06.546Z,19.20
2018-06-10T04:13:35.021Z,19.20
2018-06-10T04:16:03.462Z,19.20
2018-06-10T04:18:31.904Z,19.20
2018-06-10T04:21:00.324Z,19.10
2018-06-10T04:23:28.836Z,19.00
2018-06-10T04:25:57.282Z,19.00
2018-06-10T04:28:25.732Z,19.00
2018-06-10T04:30:54.136Z,19.10
2018-06-10T04:33:22.964Z,19.00
2018-06-10T04:35:51.388Z,19.10
2018-06-10T04:38:19.844Z,19.00
2018-06-10T04:40:48.426Z,19.00
2018-06-10T04:43:16.904Z,19.00
2018-06-10T04:45:45.340Z,19.00
2018-06-10T04:48:13.783Z,19.10
2018-06-10T04:50:42.328Z,19.00
2018-06-10T04:53:10.914Z,19.10
2018-06-10T04:55:39.371Z,19.10
2018-06-10T04:58:07.917Z,19.10
2018-06-10T05:00:36.337Z,19.10
2018-06-10T05:03:04.952Z,19.20
2018-06-10T05:05:33.443Z,19.30
2018-06-10T05:08:01.861Z,19.30
2018-06-10T05:10:30.324Z,19.40
2018-06-10T05:12:58.772Z,19.40
2018-06-10T05:15:27.280Z,19.50
2018-06-10T05:17:55.737Z,19.50
2018-06-10T05:20:24.205Z,19.50
2018-06-10T05:22:52.629Z,19.60
2018-06-10T05:25:21.121Z,19.70
2018-06-10T05:27:53.436Z,19.80
2018-06-10T05:30:21.915Z,19.80
2018-06-10T05:32:50.372Z,19.80
2018-06-10T05:35:18.818Z,19.90
2018-06-10T05:37:47.315Z,20.00
2018-06-10T05:40:15.787Z,20.10
2018-06-10T05:42:44.297Z,20.10
2018-06-10T05:45:12.771Z,20.10
2018-06-10T05:47:41.277Z,20.20
2018-06-10T05:50:09.790Z,20.20
2018-06-10T05:52:38.199Z,20.30
2018-06-10T05:55:06.631Z,20.40
2018-06-10T05:57:35.134Z,20.50
2018-06-10T06:00:03.987Z,20.60
2018-06-10T06:02:32.416Z,20.80
2018-06-10T06:05:00.925Z,20.90
2018-06-10T06:07:29.411Z,21.00
2018-06-10T06:09:57.836Z,21.00
2018-06-10T06:12:26.262Z,21.10
2018-06-10T06:14:54.708Z,21.20
2018-06-10T06:17:23.148Z,21.40
2018-06-10T06:19:51.556Z,21.40
2018-06-10T06:22:20.046Z,21.60
2018-06-10T06:24:48.582Z,21.80
2018-06-10T06:27:17.362Z,22.00
2018-06-10T06:29:45.882Z,22.30
2018-06-10T06:32:14.302Z,22.60
2018-06-10T06:34:42.768Z,22.70
2018-06-10T06:37:11.200Z,22.70
2018-06-10T06:39:39.696Z,22.70
2018-06-10T06:42:08.164Z,22.60
2018-06-10T06:44:36.624Z,22.50
2018-06-10T06:47:05.211Z,22.40
2018-06-10T06:49:33.628Z,22.40
2018-06-10T06:52:02.108Z,22.40
2018-06-10T06:54:30.587Z,22.40
2018-06-10T06:56:59.000Z,22.50
2018-06-10T06:59:27.988Z,22.60
2018-06-10T07:01:56.464Z,22.70
2018-06-10T07:04:25.074Z,22.70
2018-06-10T07:06:53.534Z,22.60
2018-06-10T07:09:21.988Z,22.60
2018-06-10T07:11:50.442Z,22.60
2018-06-10T07:14:18.947Z,22.90
2018-06-10T07:16:47.426Z,23.00
2018-06-10T07:19:15.891Z,23.20
2018-06-10T07:21:44.388Z,23.40
2018-06-10T07:24:12.928Z,23.80
2018-06-10T07:26:41.479Z,24.20
2018-06-10T07:29:09.910Z,24.70
2018-06-10T07:31:38.362Z,25.10
2018-06-10T07:34:06.796Z,25.40
2018-06-10T07:36:35.216Z,25.60
2018-06-10T07:39:04.980Z,25.60
2018-06-10T07:41:33.361Z,25.60
2018-06-10T07:44:02.428Z,25.70
2018-06-10T07:46:30.917Z,26.00
2018-06-10T07:48:59.336Z,26.00
2018-06-10T07:51:27.796Z,25.90
2018-06-10T07:53:56.239Z,25.50
2018-06-10T07:56:24.813Z,25.20
2018-06-10T07:58:53.267Z,25.00
2018-06-10T08:01:21.714Z,24.70
2018-06-10T08:03:50.220Z,24.60
2018-06-10T08:06:18.724Z,24.50
2018-06-10T08:08:47.232Z,24.30
2018-06-10T08:11:15.737Z,24.20
2018-06-10T08:13:44.150Z,24.00
2018-06-10T08:16:12.626Z,23.80
2018-06-10T08:18:42.238Z,23.70
2018-06-10T08:21:10.672Z,23.60
2018-06-10T08:23:39.206Z,23.50
2018-06-10T08:26:07.720Z,23.40
2018-06-10T08:28:36.420Z,23.40
2018-06-10T08:31:04.920Z,23.40
2018-06-10T08:33:33.384Z,23.50
2018-06-10T08:36:01.861Z,23.50
2018-06-10T08:38:30.666Z,23.60
2018-06-10T08:41:00.265Z,23.50
2018-06-10T08:43:28.697Z,23.60
2018-06-10T08:45:57.561Z,23.60
2018-06-10T08:48:26.005Z,23.60
2018-06-10T08:50:54.492Z,23.70
2018-06-10T08:53:23.001Z,23.70
2018-06-10T08:55:51.442Z,23.70
2018-06-10T08:58:19.974Z,23.60
2018-06-10T09:00:48.461Z,23.70
2018-06-10T09:03:16.878Z,23.80
2018-06-10T09:05:45.544Z,23.90
2018-06-10T09:08:13.968Z,23.90
2018-06-10T09:13:10.852Z,24.00
2018-06-10T09:15:39.299Z,24.20
2018-06-10T09:20:35.972Z,24.60
2018-06-10T09:23:04.444Z,24.50
2018-06-10T09:25:32.861Z,24.30
2018-06-10T09:28:01.488Z,24.10
2018-06-10T09:30:29.888Z,24.10
2018-06-10T09:32:58.383Z,24.20
2018-06-10T09:35:27.450Z,24.40
2018-06-10T09:37:55.882Z,24.40
2018-06-10T09:40:24.380Z,24.20
2018-06-10T09:42:52.956Z,24.10
2018-06-10T09:45:21.439Z,23.90
2018-06-10T09:47:49.940Z,23.80
2018-06-10T09:50:18.403Z,23.70
2018-06-10T09:52:47.022Z,23.90
2018-06-10T09:55:15.574Z,23.90
2018-06-10T09:57:43.923Z,23.90
2018-06-10T10:00:18.088Z,24.10
2018-06-10T10:02:46.665Z,24.20
2018-06-10T10:05:15.142Z,24.50
2018-06-10T10:07:43.654Z,24.70
2018-06-10T10:10:13.194Z,24.90
2018-06-10T10:12:41.656Z,25.00
2018-06-10T10:15:15.128Z,24.80
2018-06-10T10:17:43.726Z,24.80
2018-06-10T10:20:12.160Z,24.90
2018-06-10T10:22:40.606Z,25.00
2018-06-10T10:25:09.140Z,25.20
2018-06-10T10:27:37.656Z,25.40
2018-06-10T10:30:06.085Z,25.60
2018-06-10T10:32:34.515Z,26.00
2018-06-10T10:35:03.117Z,26.40
2018-06-10T10:37:31.564Z,26.70
2018-06-10T10:40:00.055Z,26.80
2018-06-10T10:42:28.512Z,26.80
2018-06-10T10:44:57.213Z,26.80
2018-06-10T10:47:25.705Z,26.60
2018-06-10T10:49:54.133Z,26.50
2018-06-10T10:52:22.715Z,26.40
2018-06-10T10:54:51.151Z,26.50
2018-06-10T10:57:19.609Z,26.70
2018-06-10T10:59:48.023Z,26.90
2018-06-10T11:02:16.614Z,26.80
2018-06-10T11:04:47.696Z,26.80
2018-06-10T11:07:16.153Z,26.80
2018-06-10T11:09:45.591Z,26.90
2018-06-10T11:12:14.075Z,27.20
2018-06-10T11:14:42.510Z,27.60
2018-06-10T11:17:10.965Z,27.60
2018-06-10T11:19:39.425Z,27.50
2018-06-10T11:22:07.937Z,27.40
2018-06-10T11:24:36.365Z,27.50
2018-06-10T11:27:05.658Z,27.90
2018-06-10T11:29:34.101Z,28.30
2018-06-10T11:32:03.349Z,28.30
2018-06-10T11:34:31.847Z,28.20
2018-06-10T11:37:00.319Z,27.80
2018-06-10T11:39:28.787Z,27.50
2018-06-10T11:41:57.441Z,27.50
2018-06-10T11:44:25.856Z,27.60
2018-06-10T11:46:54.367Z,27.70
2018-06-10T11:49:23.028Z,27.70
2018-06-10T11:51:51.560Z,27.60
2018-06-10T11:54:20.008Z,27.60
2018-06-10T11:56:48.536Z,27.90
2018-06-10T11:59:17.072Z,28.00
2018-06-10T12:01:45.548Z,28.30
2018-06-10T12:04:14.008Z,28.20
2018-06-10T12:06:42.440Z,28.10
2018-06-10T12:09:10.872Z,27.90
2018-06-10T12:11:39.319Z,27.70
2018-06-10T12:14:07.744Z,27.70
2018-06-10T12:16:36.275Z,27.50
2018-06-10T12:19:04.797Z,27.70
2018-06-10T12:21:33.262Z,27.70
2018-06-10T12:24:01.736Z,27.80
2018-06-10T12:26:30.260Z,28.00
2018-06-10T12:28:58.712Z,27.80
2018-06-10T12:31:27.277Z,27.50
2018-06-10T12:33:55.691Z,27.50
2018-06-10T12:36:29.956Z,27.60
2018-06-10T12:38:58.376Z,27.90
2018-06-10T12:41:26.888Z,27.80
2018-06-10T12:43:55.307Z,28.00
2018-06-10T12:46:23.808Z,27.90
2018-06-10T12:51:27.212Z,27.70
2018-06-10T12:53:55.682Z,27.80
2018-06-10T12:56:24.129Z,27.80
2018-06-10T13:01:21.003Z,28.10
2018-06-10T13:03:49.429Z,28.30
2018-06-10T13:06:18.277Z,28.30
2018-06-10T13:08:46.734Z,28.10
2018-06-10T13:11:15.229Z,28.10
2018-06-10T13:13:43.705Z,28.20
2018-06-10T13:16:12.163Z,28.50
2018-06-10T13:18:40.852Z,28.40
2018-06-10T13:21:09.553Z,28.30
2018-06-10T13:23:38.059Z,28.10
2018-06-10T13:26:06.480Z,27.90
2018-06-10T13:28:34.969Z,27.40
2018-06-10T13:31:03.399Z,27.30
2018-06-10T13:33:31.888Z,27.50
2018-06-10T13:36:00.293Z,27.50
2018-06-10T13:38:28.809Z,27.80
2018-06-10T13:40:57.283Z,27.80
2018-06-10T13:43:25.677Z,27.80
2018-06-10T13:45:54.219Z,27.80
2018-06-10T13:48:22.593Z,27.90
2018-06-10T13:50:51.238Z,27.80
2018-06-10T13:53:19.736Z,27.80
2018-06-10T13:55:48.231Z,27.50
2018-06-10T13:58:16.645Z,27.60
2018-06-10T14:00:45.155Z,27.60
2018-06-10T14:03:13.627Z,27.70
2018-06-10T14:05:42.085Z,28.00
2018-06-10T14:08:10.551Z,28.10
2018-06-10T14:10:39.071Z,28.10
2018-06-10T14:13:07.585Z,28.20
2018-06-10T14:15:36.059Z,28.30
2018-06-10T14:18:04.660Z,28.20
2018-06-10T14:20:33.112Z,28.10
2018-06-10T14:23:01.507Z,28.00
2018-06-10T14:25:30.002Z,28.10
2018-06-10T14:27:58.461Z,28.10
2018-06-10T14:30:26.977Z,28.10
2018-06-10T14:32:55.338Z,28.20
2018-06-10T14:35:23.780Z,28.30
2018-06-10T14:37:52.423Z,28.30
2018-06-10T14:40:20.992Z,28.20
2018-06-10T14:42:49.436Z,28.00
2018-06-10T14:45:17.887Z,27.80
2018-06-10T14:47:46.371Z,27.60
2018-06-10T14:50:14.842Z,27.40
2018-06-10T14:52:43.340Z,27.20
2018-06-10T14:55:11.752Z,27.00
2018-06-10T14:57:40.157Z,27.00
2018-06-10T15:00:08.590Z,26.90
2018-06-10T15:02:37.101Z,26.80
2018-06-10T15:05:05.692Z,26.70
2018-06-10T15:07:34.617Z,26.70
2018-06-10T15:10:03.135Z,26.70
2018-06-10T15:12:31.617Z,26.90
2018-06-10T15:15:00.156Z,27.00
2018-06-10T15:17:28.603Z,27.10
2018-06-10T15:19:57.270Z,27.20
2018-06-10T15:22:25.774Z,27.20
2018-06-10T15:24:54.194Z,27.30
2018-06-10T15:27:22.638Z,27.30
2018-06-10T15:29:51.066Z,27.30
2018-06-10T15:32:19.523Z,27.20
2018-06-10T15:34:47.932Z,27.10
2018-06-10T15:37:16.508Z,27.10
2018-06-10T15:39:44.930Z,27.30
2018-06-10T15:42:13.396Z,27.20
2018-06-10T15:44:42.044Z,27.30
2018-06-10T15:47:10.596Z,27.40
2018-06-10T15:49:39.077Z,27.40
2018-06-10T15:52:07.515Z,27.60
2018-06-10T15:54:35.984Z,27.50
2018-06-10T15:57:04.540Z,27.50
2018-06-10T15:59:32.990Z,27.50
2018-06-10T16:02:01.858Z,27.50
2018-06-10T16:04:30.338Z,27.50
2018-06-10T16:07:01.213Z,27.10
2018-06-10T16:09:29.640Z,26.70
2018-06-10T16:11:58.620Z,26.30
2018-06-10T16:14:27.054Z,26.10
2018-06-10T16:16:55.979Z,25.90
2018-06-10T16:19:24.388Z,25.90
2018-06-10T16:21:52.917Z,26.00
2018-06-10T16:24:22.336Z,26.00
2018-06-10T16:26:50.974Z,26.10
2018-06-10T16:29:19.428Z,26.20
2018-06-10T16:31:47.864Z,26.40
2018-06-10T16:34:16.274Z,26.50
2018-06-10T16:36:44.762Z,26.60
2018-06-10T16:39:13.252Z,26.60
2018-06-10T16:41:41.744Z,26.80
2018-06-10T16:44:10.206Z,26.70
2018-06-10T16:46:38.656Z,26.70
2018-06-10T16:49:07.359Z,26.70
2018-06-10T16:51:35.768Z,26.70
2018-06-10T16:54:04.260Z,26.70
2018-06-10T16:56:33.393Z,26.70
2018-06-10T16:59:02.363Z,26.70
2018-06-10T17:01:30.896Z,26.80
2018-06-10T17:03:59.501Z,26.80
2018-06-10T17:06:27.924Z,26.70
2018-06-10T17:08:56.598Z,26.50
2018-06-10T17:11:26.437Z,26.30
2018-06-10T17:13:55.028Z,26.10
2018-06-10T17:16:23.464Z,26.10
2018-06-10T17:18:52.018Z,25.90
2018-06-10T17:21:20.644Z,25.90
2018-06-10T17:23:49.116Z,25.80
2018-06-10T17:26:18.752Z,25.70
2018-06-10T17:28:47.233Z,25.60
2018-06-10T17:31:15.777Z,25.50
2018-06-10T17:33:44.221Z,25.50
2018-06-10T17:36:12.778Z,25.40
2018-06-10T17:38:41.310Z,25.40
2018-06-10T17:41:09.856Z,25.30
2018-06-10T17:43:38.552Z,25.20
2018-06-10T17:46:07.142Z,25.20
2018-06-10T17:48:35.799Z,25.10
2018-06-10T17:51:04.389Z,25.10
2018-06-10T17:53:32.809Z,25.10
2018-06-10T17:56:01.314Z,25.00
2018-06-10T17:58:31.148Z,25.00
2018-06-10T18:00:59.614Z,24.90
2018-06-10T18:03:28.424Z,24.80
2018-06-10T18:05:57.481Z,24.70
2018-06-10T18:08:25.920Z,24.60
2018-06-10T18:10:54.506Z,24.60
2018-06-10T18:13:23.174Z,24.50
2018-06-10T18:15:51.596Z,24.50
2018-06-10T18:18:20.300Z,24.40
2018-06-10T18:20:48.724Z,24.40
2018-06-10T18:23:17.928Z,24.30
2018-06-10T18:25:46.683Z,24.30
2018-06-10T18:28:15.272Z,24.30
2018-06-10T18:30:43.752Z,24.30
2018-06-10T18:33:12.516Z,24.30
2018-06-10T18:35:41.226Z,24.20
2018-06-10T18:38:09.952Z,24.10
2018-06-10T18:40:38.544Z,24.10
2018-06-10T18:43:06.996Z,24.10
2018-06-10T18:45:35.501Z,24.00
2018-06-10T18:48:04.434Z,24.00
2018-06-10T18:50:32.854Z,24.00
2018-06-10T18:53:01.266Z,23.90
2018-06-10T18:55:29.867Z,23.90
2018-06-10T18:57:58.351Z,23.90
2018-06-10T19:00:26.860Z,23.90
2018-06-10T19:02:56.334Z,23.90
2018-06-10T19:05:24.778Z,23.90
2018-06-10T19:07:53.244Z,23.90
2018-06-10T19:10:21.679Z,23.90
2018-06-10T19:12:50.253Z,23.90
2018-06-10T19:15:18.716Z,23.90
2018-06-10T19:17:47.196Z,23.90
2018-06-10T19:20:15.660Z,23.90
2018-06-10T19:22:44.278Z,23.80
2018-06-10T19:25:12.715Z,23.80
2018-06-10T19:27:41.166Z,23.80
2018-06-10T19:30:09.866Z,23.70
2018-06-10T19:32:38.339Z,23.70
2018-06-10T19:35:06.977Z,23.60
2018-06-10T19:37:35.601Z,23.60
2018-06-10T19:40:05.243Z,23.50
2018-06-10T19:42:33.718Z,23.50
2018-06-10T19:45:03.136Z,23.50
2018-06-10T19:47:31.644Z,23.40
2018-06-10T19:50:00.253Z,23.40
2018-06-10T19:52:31.377Z,23.40
2018-06-10T19:55:01.303Z,23.50
2018-06-10T19:57:29.829Z,23.60
2018-06-10T19:59:58.401Z,23.60
2018-06-10T20:02:26.885Z,23.60
2018-06-10T20:04:55.319Z,23.50
2018-06-10T20:07:23.757Z,23.60
2018-06-10T20:09:52.260Z,23.50
2018-06-10T20:12:20.711Z,23.50
2018-06-10T20:14:49.231Z,23.40
2018-06-10T20:17:17.837Z,23.20
2018-06-10T20:19:47.725Z,23.10
2018-06-10T20:22:16.232Z,23.10
2018-06-10T20:24:44.729Z,23.00
2018-06-10T20:27:13.235Z,22.90
2018-06-10T20:29:42.035Z,22.80
2018-06-10T20:32:10.835Z,22.70
2018-06-10T20:34:39.740Z,22.70
2018-06-10T20:37:08.215Z,22.60
2018-06-10T20:39:36.654Z,22.60
2018-06-10T20:42:06.322Z,22.60
2018-06-10T20:44:34.781Z,22.50
2018-06-10T20:47:03.304Z,22.50
2018-06-10T20:49:31.855Z,22.50
2018-06-10T20:52:00.457Z,22.40
2018-06-10T20:54:29.076Z,22.40
2018-06-10T20:56:57.559Z,22.40
2018-06-10T20:59:25.973Z,22.40
2018-06-10T21:01:54.419Z,22.30
2018-06-10T21:04:22.885Z,22.30
2018-06-10T21:06:51.470Z,22.30
2018-06-10T21:09:20.046Z,22.20
2018-06-10T21:11:48.489Z,22.20
2018-06-10T21:14:16.924Z,22.10
2018-06-10T21:16:45.703Z,22.10
2018-06-10T21:19:14.181Z,22.00
2018-06-10T21:21:43.359Z,22.00
2018-06-10T21:24:12.297Z,21.90
2018-06-10T21:26:40.685Z,21.90
2018-06-10T21:29:09.169Z,21.80
2018-06-10T21:31:37.638Z,21.80
2018-06-10T21:34:06.159Z,21.70
2018-06-10T21:36:34.668Z,21.70
2018-06-10T21:39:03.204Z,21.70
2018-06-10T21:41:31.679Z,21.60
2018-06-10T21:44:00.057Z,21.60
2018-06-10T21:46:28.529Z,21.50
2018-06-10T21:48:56.947Z,21.50
2018-06-10T21:51:26.287Z,21.40
2018-06-10T21:53:54.933Z,21.40
2018-06-10T21:56:23.535Z,21.40
2018-06-10T21:58:52.009Z,21.40
2018-06-10T22:01:20.449Z,21.40
2018-06-10T22:03:48.991Z,21.40
2018-06-10T22:06:17.425Z,21.40
2018-06-10T22:08:45.906Z,21.30
2018-06-10T22:11:14.584Z,21.30
2018-06-10T22:13:42.988Z,21.30
2018-06-10T22:16:11.473Z,21.30
2018-06-10T22:18:40.412Z,21.40
2018-06-10T22:21:08.890Z,21.40
2018-06-10T22:23:38.583Z,21.50
2018-06-10T22:26:07.208Z,21.50
2018-06-10T22:28:35.676Z,21.50
2018-06-10T22:31:04.134Z,21.40
2018-06-10T22:33:32.581Z,21.50
2018-06-10T22:36:01.053Z,21.50
2018-06-10T22:38:29.549Z,21.50
2018-06-10T22:40:58.053Z,21.60
2018-06-10T22:43:26.527Z,21.60
2018-06-10T22:45:54.934Z,21.60
2018-06-10T22:48:24.081Z,21.50
2018-06-10T22:50:52.533Z,21.50
2018-06-10T22:54:43.971Z,21.40
2018-06-10T22:57:12.438Z,21.30
2018-06-10T22:59:40.945Z,21.10
2018-06-10T23:02:10.285Z,21.00
2018-06-10T23:04:38.822Z,21.10
2018-06-10T23:07:07.456Z,21.00
2018-06-10T23:09:35.851Z,21.00
2018-06-10T23:12:04.277Z,21.10
2018-06-10T23:14:33.027Z,21.00
2018-06-10T23:17:01.494Z,21.00
2018-06-10T23:19:29.917Z,21.00
2018-06-10T23:21:58.513Z,20.90
2018-06-10T23:24:26.933Z,20.90
2018-06-10T23:26:55.416Z,20.90
2018-06-10T23:29:23.886Z,20.90
2018-06-10T23:31:52.320Z,20.80
2018-06-10T23:34:20.761Z,20.80
2018-06-10T23:36:49.228Z,20.80
2018-06-10T23:39:17.700Z,20.80
2018-06-10T23:41:46.056Z,20.80
2018-06-10T23:44:14.510Z,20.80
2018-06-10T23:46:42.936Z,20.80
2018-06-10T23:49:14.678Z,20.80
2018-06-10T23:51:44.540Z,20.70
2018-06-10T23:54:13.232Z,20.70
2018-06-10T23:56:41.733Z,20.60
2018-06-10T23:59:10.209Z,20.50
